sensor_id;sensor_type;location;lat;lon;timestamp;P1;durP1;ratioP1;P2;durP2;ratioP2
46086;SDS011;31824;49.648;8.640;2023-08-17T00:02:05;0.60;;;0.20;;
46086;SDS011;31824;49.648;8.640;2023-08-17T00:05:08;1.20;;;0.40;;
46086;SDS011;31824;49.648;8.640;2023-08-17T00:08:10;0.93;;;0.40;;
46086;SDS011;31824;49.648;8.640;2023-08-17T00:11:12;3.83;;;0.77;;
46086;SDS011;31824;49.648;8.640;2023-08-17T00:14:13;0.80;;;0.30;;
46086;SDS011;31824;49.648;8.640;2023-08-17T00:17:15;1.05;;;0.38;;
46086;SDS011;31824;49.648;8.640;2023-08-17T00:20:18;1.02;;;0.30;;
46086;SDS011;31824;49.648;8.640;2023-08-17T00:23:21;1.25;;;0.40;;
46086;SDS011;31824;49.648;8.640;2023-08-17T00:26:23;3.47;;;0.60;;
46086;SDS011;31824;49.648;8.640;2023-08-17T00:29:26;0.93;;;0.50;;
46086;SDS011;31824;49.648;8.640;2023-08-17T00:32:28;1.20;;;0.50;;
46086;SDS011;31824;49.648;8.640;2023-08-17T00:35:31;6.07;;;0.52;;
46086;SDS011;31824;49.648;8.640;2023-08-17T00:38:33;1.50;;;0.47;;
46086;SDS011;31824;49.648;8.640;2023-08-17T00:41:35;1.63;;;0.43;;
46086;SDS011;31824;49.648;8.640;2023-08-17T00:44:37;0.90;;;0.30;;
46086;SDS011;31824;49.648;8.640;2023-08-17T00:47:39;1.95;;;0.50;;
46086;SDS011;31824;49.648;8.640;2023-08-17T00:50:42;2.13;;;0.40;;
46086;SDS011;31824;49.648;8.640;2023-08-17T00:53:48;1.63;;;0.43;;
46086;SDS011;31824;49.648;8.640;2023-08-17T00:56:49;0.90;;;0.30;;
46086;SDS011;31824;49.648;8.640;2023-08-17T00:59:52;2.25;;;0.50;;
46086;SDS011;31824;49.648;8.640;2023-08-17T01:03:06;1.00;;;0.40;;
46086;SDS011;31824;49.648;8.640;2023-08-17T01:06:09;3.90;;;0.70;;
46086;SDS011;31824;49.648;8.640;2023-08-17T01:09:11;2.40;;;0.52;;
46086;SDS011;31824;49.648;8.640;2023-08-17T01:12:13;1.58;;;0.68;;
46086;SDS011;31824;49.648;8.640;2023-08-17T01:15:21;1.25;;;0.40;;
46086;SDS011;31824;49.648;8.640;2023-08-17T01:18:31;1.40;;;0.40;;
46086;SDS011;31824;49.648;8.640;2023-08-17T01:21:41;4.00;;;0.50;;
46086;SDS011;31824;49.648;8.640;2023-08-17T01:24:47;1.27;;;0.45;;
46086;SDS011;31824;49.648;8.640;2023-08-17T01:27:49;0.75;;;0.30;;
46086;SDS011;31824;49.648;8.640;2023-08-17T01:30:53;2.58;;;0.50;;
46086;SDS011;31824;49.648;8.640;2023-08-17T01:34:03;1.65;;;0.43;;
46086;SDS011;31824;49.648;8.640;2023-08-17T01:37:08;1.05;;;0.40;;
46086;SDS011;31824;49.648;8.640;2023-08-17T01:43:17;0.60;;;0.30;;
46086;SDS011;31824;49.648;8.640;2023-08-17T01:46:20;1.20;;;0.43;;
46086;SDS011;31824;49.648;8.640;2023-08-17T01:49:22;1.20;;;0.50;;
46086;SDS011;31824;49.648;8.640;2023-08-17T01:52:24;1.90;;;0.50;;
46086;SDS011;31824;49.648;8.640;2023-08-17T01:55:30;2.00;;;0.50;;
46086;SDS011;31824;49.648;8.640;2023-08-17T01:58:32;1.60;;;0.50;;
46086;SDS011;31824;49.648;8.640;2023-08-17T02:01:34;0.63;;;0.40;;
46086;SDS011;31824;49.648;8.640;2023-08-17T02:04:37;3.55;;;0.50;;
46086;SDS011;31824;49.648;8.640;2023-08-17T02:07:41;0.93;;;0.40;;
46086;SDS011;31824;49.648;8.640;2023-08-17T02:10:44;1.90;;;0.40;;
46086;SDS011;31824;49.648;8.640;2023-08-17T02:13:45;1.48;;;0.55;;
46086;SDS011;31824;49.648;8.640;2023-08-17T02:16:50;2.33;;;0.73;;
46086;SDS011;31824;49.648;8.640;2023-08-17T02:19:52;2.45;;;0.57;;
46086;SDS011;31824;49.648;8.640;2023-08-17T02:22:53;3.25;;;0.73;;
46086;SDS011;31824;49.648;8.640;2023-08-17T02:25:58;2.35;;;0.80;;
46086;SDS011;31824;49.648;8.640;2023-08-17T02:29:00;4.22;;;0.80;;
46086;SDS011;31824;49.648;8.640;2023-08-17T02:32:03;5.43;;;1.05;;
46086;SDS011;31824;49.648;8.640;2023-08-17T02:35:05;1.67;;;0.80;;
46086;SDS011;31824;49.648;8.640;2023-08-17T02:38:07;1.92;;;0.88;;
46086;SDS011;31824;49.648;8.640;2023-08-17T02:41:11;1.23;;;0.60;;
46086;SDS011;31824;49.648;8.640;2023-08-17T02:44:12;2.10;;;0.82;;
46086;SDS011;31824;49.648;8.640;2023-08-17T02:47:15;3.25;;;0.85;;
46086;SDS011;31824;49.648;8.640;2023-08-17T02:50:17;3.30;;;1.05;;
46086;SDS011;31824;49.648;8.640;2023-08-17T02:53:19;2.15;;;0.82;;
46086;SDS011;31824;49.648;8.640;2023-08-17T02:56:22;2.05;;;0.93;;
46086;SDS011;31824;49.648;8.640;2023-08-17T02:59:24;1.90;;;0.63;;
46086;SDS011;31824;49.648;8.640;2023-08-17T03:02:25;2.38;;;1.08;;
46086;SDS011;31824;49.648;8.640;2023-08-17T03:05:27;1.17;;;0.70;;
46086;SDS011;31824;49.648;8.640;2023-08-17T03:08:29;2.75;;;0.90;;
46086;SDS011;31824;49.648;8.640;2023-08-17T03:11:32;2.75;;;1.00;;
46086;SDS011;31824;49.648;8.640;2023-08-17T03:14:34;3.38;;;1.48;;
46086;SDS011;31824;49.648;8.640;2023-08-17T03:17:37;4.30;;;2.00;;
46086;SDS011;31824;49.648;8.640;2023-08-17T03:20:39;5.70;;;2.15;;
46086;SDS011;31824;49.648;8.640;2023-08-17T03:23:41;5.88;;;2.20;;
46086;SDS011;31824;49.648;8.640;2023-08-17T03:26:44;7.18;;;2.90;;
46086;SDS011;31824;49.648;8.640;2023-08-17T03:29:45;6.03;;;2.40;;
46086;SDS011;31824;49.648;8.640;2023-08-17T03:32:47;4.68;;;2.15;;
46086;SDS011;31824;49.648;8.640;2023-08-17T03:35:50;5.35;;;2.90;;
46086;SDS011;31824;49.648;8.640;2023-08-17T03:38:52;5.75;;;2.63;;
46086;SDS011;31824;49.648;8.640;2023-08-17T03:41:55;4.57;;;2.38;;
46086;SDS011;31824;49.648;8.640;2023-08-17T03:44:58;8.30;;;3.17;;
46086;SDS011;31824;49.648;8.640;2023-08-17T03:47:59;8.32;;;3.38;;
46086;SDS011;31824;49.648;8.640;2023-08-17T03:51:02;7.93;;;3.03;;
46086;SDS011;31824;49.648;8.640;2023-08-17T03:54:04;6.03;;;2.90;;
46086;SDS011;31824;49.648;8.640;2023-08-17T03:57:07;6.65;;;3.33;;
46086;SDS011;31824;49.648;8.640;2023-08-17T04:00:10;5.95;;;3.13;;
46086;SDS011;31824;49.648;8.640;2023-08-17T04:03:15;11.70;;;3.83;;
46086;SDS011;31824;49.648;8.640;2023-08-17T04:06:17;21.30;;;4.20;;
46086;SDS011;31824;49.648;8.640;2023-08-17T04:09:18;20.50;;;4.28;;
46086;SDS011;31824;49.648;8.640;2023-08-17T04:12:21;17.00;;;4.45;;
46086;SDS011;31824;49.648;8.640;2023-08-17T04:15:23;12.50;;;3.53;;
46086;SDS011;31824;49.648;8.640;2023-08-17T04:18:25;32.13;;;3.92;;
46086;SDS011;31824;49.648;8.640;2023-08-17T04:21:27;7.70;;;3.58;;
46086;SDS011;31824;49.648;8.640;2023-08-17T04:24:30;19.42;;;3.50;;
46086;SDS011;31824;49.648;8.640;2023-08-17T04:27:33;7.45;;;3.58;;
46086;SDS011;31824;49.648;8.640;2023-08-17T04:30:35;24.88;;;3.95;;
46086;SDS011;31824;49.648;8.640;2023-08-17T04:33:39;7.88;;;2.88;;
46086;SDS011;31824;49.648;8.640;2023-08-17T04:36:41;6.93;;;3.30;;
46086;SDS011;31824;49.648;8.640;2023-08-17T04:39:43;11.93;;;3.20;;
46086;SDS011;31824;49.648;8.640;2023-08-17T04:42:51;32.13;;;3.67;;
46086;SDS011;31824;49.648;8.640;2023-08-17T04:45:55;13.65;;;3.13;;
46086;SDS011;31824;49.648;8.640;2023-08-17T04:48:58;5.28;;;2.42;;
46086;SDS011;31824;49.648;8.640;2023-08-17T04:52:01;6.22;;;2.60;;
46086;SDS011;31824;49.648;8.640;2023-08-17T04:55:03;4.32;;;2.03;;
46086;SDS011;31824;49.648;8.640;2023-08-17T04:58:07;5.10;;;2.28;;
46086;SDS011;31824;49.648;8.640;2023-08-17T05:01:09;7.20;;;2.35;;
46086;SDS011;31824;49.648;8.640;2023-08-17T05:04:12;4.38;;;2.22;;
46086;SDS011;31824;49.648;8.640;2023-08-17T05:07:13;4.25;;;1.85;;
46086;SDS011;31824;49.648;8.640;2023-08-17T05:10:15;4.50;;;2.08;;
46086;SDS011;31824;49.648;8.640;2023-08-17T05:13:18;4.35;;;2.30;;
46086;SDS011;31824;49.648;8.640;2023-08-17T05:16:21;7.75;;;2.58;;
46086;SDS011;31824;49.648;8.640;2023-08-17T05:19:24;5.18;;;2.72;;
46086;SDS011;31824;49.648;8.640;2023-08-17T05:22:26;6.07;;;2.63;;
46086;SDS011;31824;49.648;8.640;2023-08-17T05:25:28;5.30;;;2.60;;
46086;SDS011;31824;49.648;8.640;2023-08-17T05:28:32;5.97;;;2.97;;
46086;SDS011;31824;49.648;8.640;2023-08-17T05:31:36;6.53;;;2.50;;
46086;SDS011;31824;49.648;8.640;2023-08-17T05:34:40;4.97;;;2.42;;
46086;SDS011;31824;49.648;8.640;2023-08-17T05:37:42;5.18;;;2.38;;
46086;SDS011;31824;49.648;8.640;2023-08-17T05:40:44;6.60;;;2.55;;
46086;SDS011;31824;49.648;8.640;2023-08-17T05:43:47;5.63;;;2.47;;
46086;SDS011;31824;49.648;8.640;2023-08-17T05:46:50;9.40;;;2.97;;
46086;SDS011;31824;49.648;8.640;2023-08-17T05:49:51;4.57;;;2.22;;
46086;SDS011;31824;49.648;8.640;2023-08-17T05:52:54;5.38;;;2.53;;
46086;SDS011;31824;49.648;8.640;2023-08-17T05:55:57;7.40;;;2.72;;
46086;SDS011;31824;49.648;8.640;2023-08-17T05:59:00;5.32;;;2.35;;
46086;SDS011;31824;49.648;8.640;2023-08-17T06:02:02;6.43;;;2.58;;
46086;SDS011;31824;49.648;8.640;2023-08-17T06:05:04;4.43;;;2.28;;
46086;SDS011;31824;49.648;8.640;2023-08-17T06:08:07;6.00;;;2.83;;
46086;SDS011;31824;49.648;8.640;2023-08-17T06:11:08;6.97;;;2.83;;
46086;SDS011;31824;49.648;8.640;2023-08-17T06:14:12;6.72;;;2.97;;
46086;SDS011;31824;49.648;8.640;2023-08-17T06:17:13;7.40;;;3.30;;
46086;SDS011;31824;49.648;8.640;2023-08-17T06:20:15;7.32;;;3.13;;
46086;SDS011;31824;49.648;8.640;2023-08-17T06:23:18;7.28;;;2.85;;
46086;SDS011;31824;49.648;8.640;2023-08-17T06:26:20;6.25;;;2.88;;
46086;SDS011;31824;49.648;8.640;2023-08-17T06:29:24;8.10;;;3.13;;
46086;SDS011;31824;49.648;8.640;2023-08-17T06:32:25;7.03;;;3.10;;
46086;SDS011;31824;49.648;8.640;2023-08-17T06:35:27;7.07;;;3.13;;
46086;SDS011;31824;49.648;8.640;2023-08-17T06:38:29;6.72;;;2.97;;
46086;SDS011;31824;49.648;8.640;2023-08-17T06:41:30;4.70;;;2.55;;
46086;SDS011;31824;49.648;8.640;2023-08-17T06:44:33;5.88;;;2.83;;
46086;SDS011;31824;49.648;8.640;2023-08-17T06:47:35;5.28;;;2.80;;
46086;SDS011;31824;49.648;8.640;2023-08-17T06:50:37;5.45;;;2.58;;
46086;SDS011;31824;49.648;8.640;2023-08-17T06:53:39;5.50;;;2.67;;
46086;SDS011;31824;49.648;8.640;2023-08-17T06:56:42;4.88;;;2.50;;
46086;SDS011;31824;49.648;8.640;2023-08-17T06:59:45;4.80;;;2.10;;
46086;SDS011;31824;49.648;8.640;2023-08-17T07:02:47;5.55;;;2.25;;
46086;SDS011;31824;49.648;8.640;2023-08-17T07:05:55;4.10;;;2.05;;
46086;SDS011;31824;49.648;8.640;2023-08-17T07:08:57;6.28;;;1.92;;
46086;SDS011;31824;49.648;8.640;2023-08-17T07:11:58;3.92;;;1.63;;
46086;SDS011;31824;49.648;8.640;2023-08-17T07:15:01;5.25;;;1.77;;
46086;SDS011;31824;49.648;8.640;2023-08-17T07:18:04;4.72;;;1.50;;
46086;SDS011;31824;49.648;8.640;2023-08-17T07:21:06;2.38;;;1.20;;
46086;SDS011;31824;49.648;8.640;2023-08-17T07:24:12;6.60;;;1.48;;
46086;SDS011;31824;49.648;8.640;2023-08-17T07:27:15;3.08;;;1.45;;
46086;SDS011;31824;49.648;8.640;2023-08-17T07:30:18;4.05;;;1.60;;
46086;SDS011;31824;49.648;8.640;2023-08-17T07:33:20;2.42;;;1.05;;
46086;SDS011;31824;49.648;8.640;2023-08-17T07:36:21;5.18;;;1.65;;
46086;SDS011;31824;49.648;8.640;2023-08-17T07:39:23;3.75;;;1.60;;
46086;SDS011;31824;49.648;8.640;2023-08-17T07:42:25;6.20;;;2.00;;
46086;SDS011;31824;49.648;8.640;2023-08-17T07:45:29;4.85;;;1.63;;
46086;SDS011;31824;49.648;8.640;2023-08-17T07:48:31;3.97;;;1.30;;
46086;SDS011;31824;49.648;8.640;2023-08-17T07:51:34;4.15;;;1.42;;
46086;SDS011;31824;49.648;8.640;2023-08-17T07:54:36;5.30;;;1.77;;
46086;SDS011;31824;49.648;8.640;2023-08-17T07:57:38;4.25;;;1.60;;
46086;SDS011;31824;49.648;8.640;2023-08-17T08:00:41;2.85;;;1.40;;
46086;SDS011;31824;49.648;8.640;2023-08-17T08:03:43;3.75;;;1.40;;
46086;SDS011;31824;49.648;8.640;2023-08-17T08:06:45;3.83;;;1.55;;
46086;SDS011;31824;49.648;8.640;2023-08-17T08:09:47;2.10;;;1.13;;
46086;SDS011;31824;49.648;8.640;2023-08-17T08:12:48;3.78;;;1.33;;
46086;SDS011;31824;49.648;8.640;2023-08-17T08:15:51;4.60;;;1.17;;
46086;SDS011;31824;49.648;8.640;2023-08-17T08:18:53;2.38;;;1.10;;
46086;SDS011;31824;49.648;8.640;2023-08-17T08:21:57;3.35;;;1.40;;
46086;SDS011;31824;49.648;8.640;2023-08-17T08:24:58;2.97;;;1.20;;
46086;SDS011;31824;49.648;8.640;2023-08-17T08:28:00;4.47;;;1.98;;
46086;SDS011;31824;49.648;8.640;2023-08-17T08:31:03;5.13;;;1.65;;
46086;SDS011;31824;49.648;8.640;2023-08-17T08:34:05;3.35;;;1.33;;
46086;SDS011;31824;49.648;8.640;2023-08-17T08:37:07;3.30;;;1.55;;
46086;SDS011;31824;49.648;8.640;2023-08-17T08:40:10;3.22;;;1.60;;
46086;SDS011;31824;49.648;8.640;2023-08-17T08:43:14;3.15;;;1.67;;
46086;SDS011;31824;49.648;8.640;2023-08-17T08:46:18;2.60;;;1.50;;
46086;SDS011;31824;49.648;8.640;2023-08-17T08:49:23;3.78;;;1.60;;
46086;SDS011;31824;49.648;8.640;2023-08-17T08:52:27;3.58;;;1.50;;
46086;SDS011;31824;49.648;8.640;2023-08-17T08:55:37;2.65;;;1.50;;
46086;SDS011;31824;49.648;8.640;2023-08-17T08:58:45;3.55;;;1.58;;
46086;SDS011;31824;49.648;8.640;2023-08-17T09:01:50;3.35;;;1.52;;
46086;SDS011;31824;49.648;8.640;2023-08-17T09:04:52;3.03;;;1.70;;
46086;SDS011;31824;49.648;8.640;2023-08-17T09:07:54;3.50;;;1.45;;
46086;SDS011;31824;49.648;8.640;2023-08-17T09:10:58;2.55;;;1.30;;
46086;SDS011;31824;49.648;8.640;2023-08-17T09:13:59;4.85;;;1.30;;
46086;SDS011;31824;49.648;8.640;2023-08-17T09:17:02;3.13;;;1.30;;
46086;SDS011;31824;49.648;8.640;2023-08-17T09:20:05;2.75;;;1.40;;
46086;SDS011;31824;49.648;8.640;2023-08-17T09:23:09;2.80;;;1.23;;
46086;SDS011;31824;49.648;8.640;2023-08-17T09:27:22;4.63;;;1.60;;
46086;SDS011;31824;49.648;8.640;2023-08-17T09:30:24;2.50;;;1.33;;
46086;SDS011;31824;49.648;8.640;2023-08-17T09:33:26;2.88;;;1.30;;
46086;SDS011;31824;49.648;8.640;2023-08-17T09:36:32;4.00;;;1.70;;
46086;SDS011;31824;49.648;8.640;2023-08-17T09:39:36;4.10;;;1.80;;
46086;SDS011;31824;49.648;8.640;2023-08-17T09:42:39;3.15;;;1.30;;
46086;SDS011;31824;49.648;8.640;2023-08-17T09:45:42;3.85;;;1.50;;
46086;SDS011;31824;49.648;8.640;2023-08-17T09:48:47;3.28;;;1.52;;
46086;SDS011;31824;49.648;8.640;2023-08-17T09:51:49;3.40;;;1.70;;
46086;SDS011;31824;49.648;8.640;2023-08-17T09:54:51;5.13;;;1.92;;
46086;SDS011;31824;49.648;8.640;2023-08-17T09:57:55;2.97;;;1.60;;
46086;SDS011;31824;49.648;8.640;2023-08-17T10:00:59;2.88;;;1.67;;
46086;SDS011;31824;49.648;8.640;2023-08-17T10:04:05;5.40;;;1.88;;
46086;SDS011;31824;49.648;8.640;2023-08-17T10:07:13;4.88;;;1.73;;
46086;SDS011;31824;49.648;8.640;2023-08-17T10:10:16;4.78;;;1.75;;
46086;SDS011;31824;49.648;8.640;2023-08-17T10:13:26;3.55;;;1.85;;
46086;SDS011;31824;49.648;8.640;2023-08-17T10:16:33;3.53;;;1.77;;
46086;SDS011;31824;49.648;8.640;2023-08-17T10:19:42;3.83;;;1.83;;
46086;SDS011;31824;49.648;8.640;2023-08-17T10:22:54;3.20;;;1.73;;
46086;SDS011;31824;49.648;8.640;2023-08-17T10:26:04;4.43;;;1.85;;
46086;SDS011;31824;49.648;8.640;2023-08-17T10:29:10;3.13;;;1.80;;
46086;SDS011;31824;49.648;8.640;2023-08-17T10:32:17;4.75;;;1.77;;
46086;SDS011;31824;49.648;8.640;2023-08-17T10:35:19;4.38;;;1.83;;
46086;SDS011;31824;49.648;8.640;2023-08-17T10:38:21;2.92;;;1.77;;
46086;SDS011;31824;49.648;8.640;2023-08-17T10:41:23;3.42;;;2.00;;
46086;SDS011;31824;49.648;8.640;2023-08-17T10:44:42;4.38;;;2.22;;
46086;SDS011;31824;49.648;8.640;2023-08-17T10:47:45;2.90;;;1.63;;
46086;SDS011;31824;49.648;8.640;2023-08-17T10:50:58;2.78;;;1.85;;
46086;SDS011;31824;49.648;8.640;2023-08-17T10:54:02;3.42;;;1.77;;
46086;SDS011;31824;49.648;8.640;2023-08-17T11:00:31;3.88;;;2.00;;
46086;SDS011;31824;49.648;8.640;2023-08-17T11:03:35;2.97;;;1.80;;
46086;SDS011;31824;49.648;8.640;2023-08-17T11:06:38;4.18;;;1.85;;
46086;SDS011;31824;49.648;8.640;2023-08-17T11:09:40;4.95;;;1.77;;
46086;SDS011;31824;49.648;8.640;2023-08-17T11:12:45;3.15;;;2.00;;
46086;SDS011;31824;49.648;8.640;2023-08-17T11:15:48;5.07;;;1.77;;
46086;SDS011;31824;49.648;8.640;2023-08-17T11:18:51;3.30;;;1.90;;
46086;SDS011;31824;49.648;8.640;2023-08-17T11:21:53;3.92;;;2.00;;
46086;SDS011;31824;49.648;8.640;2023-08-17T11:24:55;3.63;;;2.33;;
46086;SDS011;31824;49.648;8.640;2023-08-17T11:27:57;4.40;;;2.28;;
46086;SDS011;31824;49.648;8.640;2023-08-17T11:31:01;3.50;;;2.13;;
46086;SDS011;31824;49.648;8.640;2023-08-17T11:34:04;3.05;;;1.85;;
46086;SDS011;31824;49.648;8.640;2023-08-17T11:37:06;3.58;;;2.20;;
46086;SDS011;31824;49.648;8.640;2023-08-17T11:40:08;3.90;;;1.83;;
46086;SDS011;31824;49.648;8.640;2023-08-17T11:43:14;4.45;;;2.20;;
46086;SDS011;31824;49.648;8.640;2023-08-17T11:46:17;3.50;;;2.28;;
46086;SDS011;31824;49.648;8.640;2023-08-17T11:49:19;3.58;;;2.00;;
46086;SDS011;31824;49.648;8.640;2023-08-17T11:52:21;3.85;;;1.90;;
46086;SDS011;31824;49.648;8.640;2023-08-17T11:55:22;2.88;;;1.65;;
46086;SDS011;31824;49.648;8.640;2023-08-17T11:58:35;4.75;;;1.77;;
46086;SDS011;31824;49.648;8.640;2023-08-17T12:01:39;3.97;;;2.00;;
46086;SDS011;31824;49.648;8.640;2023-08-17T12:04:41;4.22;;;2.28;;
46086;SDS011;31824;49.648;8.640;2023-08-17T12:07:45;2.75;;;1.90;;
46086;SDS011;31824;49.648;8.640;2023-08-17T12:10:47;4.47;;;1.77;;
46086;SDS011;31824;49.648;8.640;2023-08-17T12:13:49;3.42;;;1.85;;
46086;SDS011;31824;49.648;8.640;2023-08-17T12:16:54;4.78;;;2.03;;
46086;SDS011;31824;49.648;8.640;2023-08-17T12:19:58;6.38;;;2.00;;
46086;SDS011;31824;49.648;8.640;2023-08-17T12:23:00;2.55;;;1.70;;
46086;SDS011;31824;49.648;8.640;2023-08-17T12:26:03;3.05;;;1.92;;
46086;SDS011;31824;49.648;8.640;2023-08-17T12:29:05;3.97;;;1.80;;
46086;SDS011;31824;49.648;8.640;2023-08-17T12:32:09;3.30;;;1.90;;
46086;SDS011;31824;49.648;8.640;2023-08-17T12:35:12;4.00;;;1.80;;
46086;SDS011;31824;49.648;8.640;2023-08-17T12:38:23;2.90;;;1.50;;
46086;SDS011;31824;49.648;8.640;2023-08-17T12:41:26;3.42;;;1.52;;
46086;SDS011;31824;49.648;8.640;2023-08-17T12:44:28;2.47;;;1.55;;
46086;SDS011;31824;49.648;8.640;2023-08-17T12:47:31;2.38;;;1.40;;
46086;SDS011;31824;49.648;8.640;2023-08-17T12:50:35;2.70;;;1.40;;
46086;SDS011;31824;49.648;8.640;2023-08-17T12:53:44;3.22;;;1.30;;
46086;SDS011;31824;49.648;8.640;2023-08-17T12:56:51;3.25;;;1.77;;
46086;SDS011;31824;49.648;8.640;2023-08-17T12:59:52;2.67;;;1.33;;
46086;SDS011;31824;49.648;8.640;2023-08-17T13:02:56;3.25;;;1.70;;
46086;SDS011;31824;49.648;8.640;2023-08-17T13:05:58;2.97;;;1.40;;
46086;SDS011;31824;49.648;8.640;2023-08-17T13:09:00;3.63;;;1.42;;
46086;SDS011;31824;49.648;8.640;2023-08-17T13:12:01;3.30;;;1.67;;
46086;SDS011;31824;49.648;8.640;2023-08-17T13:15:04;3.65;;;1.52;;
46086;SDS011;31824;49.648;8.640;2023-08-17T13:18:08;3.13;;;1.45;;
46086;SDS011;31824;49.648;8.640;2023-08-17T13:21:10;4.97;;;2.00;;
46086;SDS011;31824;49.648;8.640;2023-08-17T13:24:17;2.50;;;1.42;;
46086;SDS011;31824;49.648;8.640;2023-08-17T13:27:18;3.15;;;1.58;;
46086;SDS011;31824;49.648;8.640;2023-08-17T13:30:20;4.13;;;1.88;;
46086;SDS011;31824;49.648;8.640;2023-08-17T13:33:23;4.05;;;1.63;;
46086;SDS011;31824;49.648;8.640;2023-08-17T13:36:25;4.00;;;1.77;;
46086;SDS011;31824;49.648;8.640;2023-08-17T13:39:27;2.45;;;1.45;;
46086;SDS011;31824;49.648;8.640;2023-08-17T13:42:29;3.85;;;1.90;;
46086;SDS011;31824;49.648;8.640;2023-08-17T13:45:31;4.20;;;1.60;;
46086;SDS011;31824;49.648;8.640;2023-08-17T13:48:35;2.80;;;1.60;;
46086;SDS011;31824;49.648;8.640;2023-08-17T13:51:39;4.53;;;1.80;;
46086;SDS011;31824;49.648;8.640;2023-08-17T13:54:41;3.45;;;1.80;;
46086;SDS011;31824;49.648;8.640;2023-08-17T13:57:43;4.88;;;1.90;;
46086;SDS011;31824;49.648;8.640;2023-08-17T14:00:46;2.85;;;1.80;;
46086;SDS011;31824;49.648;8.640;2023-08-17T14:03:51;3.47;;;1.63;;
46086;SDS011;31824;49.648;8.640;2023-08-17T14:06:53;3.80;;;1.98;;
46086;SDS011;31824;49.648;8.640;2023-08-17T14:09:55;3.50;;;1.83;;
46086;SDS011;31824;49.648;8.640;2023-08-17T14:13:09;2.58;;;1.70;;
46086;SDS011;31824;49.648;8.640;2023-08-17T14:16:11;3.05;;;1.85;;
46086;SDS011;31824;49.648;8.640;2023-08-17T14:19:14;3.08;;;1.40;;
46086;SDS011;31824;49.648;8.640;2023-08-17T14:22:16;3.85;;;1.92;;
46086;SDS011;31824;49.648;8.640;2023-08-17T14:25:18;3.20;;;1.67;;
46086;SDS011;31824;49.648;8.640;2023-08-17T14:28:20;4.93;;;2.10;;
46086;SDS011;31824;49.648;8.640;2023-08-17T14:31:22;4.05;;;1.90;;
46086;SDS011;31824;49.648;8.640;2023-08-17T14:34:25;2.83;;;1.70;;
46086;SDS011;31824;49.648;8.640;2023-08-17T14:37:27;3.38;;;1.75;;
46086;SDS011;31824;49.648;8.640;2023-08-17T14:40:29;3.53;;;1.80;;
46086;SDS011;31824;49.648;8.640;2023-08-17T14:43:31;2.80;;;1.60;;
46086;SDS011;31824;49.648;8.640;2023-08-17T14:46:33;3.88;;;1.90;;
46086;SDS011;31824;49.648;8.640;2023-08-17T14:49:37;5.70;;;1.90;;
46086;SDS011;31824;49.648;8.640;2023-08-17T14:52:39;3.58;;;1.88;;
46086;SDS011;31824;49.648;8.640;2023-08-17T14:55:40;2.55;;;1.60;;
46086;SDS011;31824;49.648;8.640;2023-08-17T14:58:42;3.65;;;1.70;;
46086;SDS011;31824;49.648;8.640;2023-08-17T15:01:44;3.35;;;1.65;;
46086;SDS011;31824;49.648;8.640;2023-08-17T15:04:47;2.20;;;1.45;;
46086;SDS011;31824;49.648;8.640;2023-08-17T15:07:49;3.38;;;1.90;;
46086;SDS011;31824;49.648;8.640;2023-08-17T15:10:51;2.88;;;1.60;;
46086;SDS011;31824;49.648;8.640;2023-08-17T15:13:53;3.08;;;1.45;;
46086;SDS011;31824;49.648;8.640;2023-08-17T15:16:54;2.85;;;1.58;;
46086;SDS011;31824;49.648;8.640;2023-08-17T15:19:57;3.15;;;1.70;;
46086;SDS011;31824;49.648;8.640;2023-08-17T15:26:01;3.00;;;1.50;;
46086;SDS011;31824;49.648;8.640;2023-08-17T15:29:03;4.22;;;1.77;;
46086;SDS011;31824;49.648;8.640;2023-08-17T15:32:05;3.90;;;1.85;;
46086;SDS011;31824;49.648;8.640;2023-08-17T15:35:09;4.28;;;1.73;;
46086;SDS011;31824;49.648;8.640;2023-08-17T15:38:11;3.30;;;1.60;;
46086;SDS011;31824;49.648;8.640;2023-08-17T15:41:14;2.72;;;1.50;;
46086;SDS011;31824;49.648;8.640;2023-08-17T15:44:16;2.90;;;1.67;;
46086;SDS011;31824;49.648;8.640;2023-08-17T15:47:18;3.83;;;1.50;;
46086;SDS011;31824;49.648;8.640;2023-08-17T15:50:21;4.38;;;1.42;;
46086;SDS011;31824;49.648;8.640;2023-08-17T15:53:23;2.63;;;1.48;;
46086;SDS011;31824;49.648;8.640;2023-08-17T15:56:25;4.45;;;1.67;;
46086;SDS011;31824;49.648;8.640;2023-08-17T15:59:27;2.65;;;1.50;;
46086;SDS011;31824;49.648;8.640;2023-08-17T16:02:29;2.70;;;1.40;;
46086;SDS011;31824;49.648;8.640;2023-08-17T16:05:32;3.28;;;1.60;;
46086;SDS011;31824;49.648;8.640;2023-08-17T16:08:34;5.38;;;1.80;;
46086;SDS011;31824;49.648;8.640;2023-08-17T16:11:50;2.80;;;1.48;;
46086;SDS011;31824;49.648;8.640;2023-08-17T16:14:51;3.08;;;1.40;;
46086;SDS011;31824;49.648;8.640;2023-08-17T16:17:53;2.85;;;1.63;;
46086;SDS011;31824;49.648;8.640;2023-08-17T16:21:03;2.95;;;1.50;;
46086;SDS011;31824;49.648;8.640;2023-08-17T16:24:04;3.63;;;1.40;;
46086;SDS011;31824;49.648;8.640;2023-08-17T16:27:06;3.17;;;1.27;;
46086;SDS011;31824;49.648;8.640;2023-08-17T16:30:08;2.42;;;1.38;;
46086;SDS011;31824;49.648;8.640;2023-08-17T16:33:11;2.47;;;1.45;;
46086;SDS011;31824;49.648;8.640;2023-08-17T16:36:17;2.78;;;1.63;;
46086;SDS011;31824;49.648;8.640;2023-08-17T16:39:19;2.47;;;1.25;;
46086;SDS011;31824;49.648;8.640;2023-08-17T16:42:21;2.03;;;1.25;;
46086;SDS011;31824;49.648;8.640;2023-08-17T16:45:23;3.45;;;1.50;;
46086;SDS011;31824;49.648;8.640;2023-08-17T16:48:25;2.65;;;1.30;;
46086;SDS011;31824;49.648;8.640;2023-08-17T16:51:28;4.18;;;1.30;;
46086;SDS011;31824;49.648;8.640;2023-08-17T16:54:36;2.80;;;1.45;;
46086;SDS011;31824;49.648;8.640;2023-08-17T16:57:37;2.05;;;1.30;;
46086;SDS011;31824;49.648;8.640;2023-08-17T17:00:39;4.10;;;1.20;;
46086;SDS011;31824;49.648;8.640;2023-08-17T17:03:41;2.47;;;1.55;;
46086;SDS011;31824;49.648;8.640;2023-08-17T17:06:44;4.72;;;1.80;;
46086;SDS011;31824;49.648;8.640;2023-08-17T17:09:45;4.85;;;1.50;;
46086;SDS011;31824;49.648;8.640;2023-08-17T17:12:49;3.03;;;1.52;;
46086;SDS011;31824;49.648;8.640;2023-08-17T17:15:51;4.05;;;1.70;;
46086;SDS011;31824;49.648;8.640;2023-08-17T17:18:53;2.35;;;1.50;;
46086;SDS011;31824;49.648;8.640;2023-08-17T17:21:56;2.22;;;1.40;;
46086;SDS011;31824;49.648;8.640;2023-08-17T17:24:58;2.85;;;1.48;;
46086;SDS011;31824;49.648;8.640;2023-08-17T17:28:00;3.67;;;1.40;;
46086;SDS011;31824;49.648;8.640;2023-08-17T17:31:02;5.15;;;1.50;;
46086;SDS011;31824;49.648;8.640;2023-08-17T17:34:05;2.63;;;1.55;;
46086;SDS011;31824;49.648;8.640;2023-08-17T17:37:07;4.10;;;1.40;;
46086;SDS011;31824;49.648;8.640;2023-08-17T17:40:09;3.35;;;1.35;;
46086;SDS011;31824;49.648;8.640;2023-08-17T17:43:12;2.70;;;1.45;;
46086;SDS011;31824;49.648;8.640;2023-08-17T17:46:13;4.43;;;1.63;;
46086;SDS011;31824;49.648;8.640;2023-08-17T17:49:15;4.55;;;1.50;;
46086;SDS011;31824;49.648;8.640;2023-08-17T17:52:18;2.25;;;1.30;;
46086;SDS011;31824;49.648;8.640;2023-08-17T17:55:20;3.38;;;1.60;;
46086;SDS011;31824;49.648;8.640;2023-08-17T17:58:22;3.45;;;1.50;;
46086;SDS011;31824;49.648;8.640;2023-08-17T18:01:24;2.90;;;1.50;;
46086;SDS011;31824;49.648;8.640;2023-08-17T18:04:25;3.00;;;1.55;;
46086;SDS011;31824;49.648;8.640;2023-08-17T18:07:30;2.10;;;1.38;;
46086;SDS011;31824;49.648;8.640;2023-08-17T18:10:31;2.67;;;1.58;;
46086;SDS011;31824;49.648;8.640;2023-08-17T18:13:33;3.55;;;1.52;;
46086;SDS011;31824;49.648;8.640;2023-08-17T18:16:35;3.08;;;1.60;;
46086;SDS011;31824;49.648;8.640;2023-08-17T18:19:37;2.75;;;1.52;;
46086;SDS011;31824;49.648;8.640;2023-08-17T18:22:40;2.33;;;1.40;;
46086;SDS011;31824;49.648;8.640;2023-08-17T18:25:44;3.28;;;1.75;;
46086;SDS011;31824;49.648;8.640;2023-08-17T18:28:49;3.92;;;1.70;;
46086;SDS011;31824;49.648;8.640;2023-08-17T18:31:51;3.22;;;1.48;;
46086;SDS011;31824;49.648;8.640;2023-08-17T18:34:53;3.67;;;1.50;;